Time;durP1;ratioP1;P1;durP2;ratioP2;P2;SDS_P1;SDS_P2;PMS_P1;PMS_P2;Temp;Humidity;BMP_temperature;BMP_pressure;BME280_temperature;BME280_humidity;BME280_pressure;Samples;Min_cycle;Max_cycle;Signal;HPM_P1;HPM_P2
2024/02/02 00:00:35;;;;;;;7.00;6.80;;;21.30;47.50;;;;;;5014735;28;20496;-68
2024/02/02 00:03:04;;;;;;;7.30;6.90;;;21.20;47.50;;;;;;5023190;28;20469;-68
2024/02/02 00:05:30;;;;;;;6.93;6.63;;;21.20;47.50;;;;;;5021719;28;20449;-68
2024/02/02 00:07:57;;;;;;;6.40;5.90;;;21.20;47.50;;;;;;5025928;28;20429;-68
2024/02/02 00:10:25;;;;;;;6.23;6.00;;;21.20;47.50;;;;;;5014521;28;20449;-68
2024/02/02 00:12:52;;;;;;;6.80;6.53;;;21.20;47.50;;;;;;5022366;28;20560;-68
2024/02/02 00:15:20;;;;;;;7.77;7.40;;;21.20;47.50;;;;;;5013128;28;20445;-68
2024/02/02 00:17:47;;;;;;;7.13;6.73;;;21.20;47.50;;;;;;5025763;28;21019;-68
2024/02/02 00:20:16;;;;;;;6.60;6.30;;;21.20;47.40;;;;;;5023332;28;21034;-68
2024/02/02 00:22:42;;;;;;;7.30;6.90;;;21.20;47.50;;;;;;5022089;28;20474;-68
2024/02/02 00:25:09;;;;;;;8.07;7.57;;;21.20;47.60;;;;;;5011790;28;20451;-68
2024/02/02 00:27:36;;;;;;;6.90;6.60;;;21.20;47.60;;;;;;5025023;28;20495;-68
2024/02/02 00:30:04;;;;;;;6.50;6.30;;;21.10;47.50;;;;;;5024543;28;20503;-68
2024/02/02 00:32:31;;;;;;;6.60;6.40;;;21.10;47.50;;;;;;5022083;28;20527;-68
2024/02/02 00:34:58;;;;;;;6.03;5.83;;;21.10;47.40;;;;;;5018444;28;20825;-68
2024/02/02 00:37:26;;;;;;;6.23;6.03;;;21.10;47.50;;;;;;5025339;28;20472;-68
2024/02/02 00:39:53;;;;;;;6.43;6.13;;;21.10;47.50;;;;;;5025406;28;20448;-68
2024/02/02 00:42:20;;;;;;;6.07;5.90;;;21.10;47.50;;;;;;5022022;28;20523;-68
2024/02/02 00:44:47;;;;;;;6.57;6.27;;;21.10;47.60;;;;;;5011825;28;20786;-68
2024/02/02 00:47:14;;;;;;;7.10;6.77;;;21.10;47.50;;;;;;5023042;28;20446;-68
2024/02/02 00:49:41;;;;;;;7.13;6.83;;;21.10;47.50;;;;;;5025051;28;20498;-68
2024/02/02 00:52:08;;;;;;;6.10;5.90;;;21.10;47.60;;;;;;5023378;28;20448;-68
2024/02/02 00:54:36;;;;;;;6.10;5.90;;;21.10;47.60;;;;;;5021217;28;20516;-68
2024/02/02 00:57:03;;;;;;;6.63;6.30;;;21.10;47.50;;;;;;5013519;28;20535;-68
2024/02/02 00:59:30;;;;;;;6.70;6.30;;;21.10;47.50;;;;;;5013542;28;20508;-68
2024/02/02 01:01:57;;;;;;;7.50;7.10;;;21.00;47.50;;;;;;5021509;28;20500;-68
2024/02/02 01:04:24;;;;;;;6.50;6.20;;;21.00;47.50;;;;;;5013545;28;20490;-68
2024/02/02 01:06:51;;;;;;;6.30;6.00;;;21.00;47.50;;;;;;5013418;28;20489;-67
2024/02/02 01:09:18;;;;;;;5.93;5.63;;;21.00;47.60;;;;;;5024032;28;20446;-68
2024/02/02 01:11:47;;;;;;;6.20;6.00;;;21.00;47.60;;;;;;5024757;28;20528;-68
2024/02/02 01:14:15;;;;;;;7.43;6.80;;;21.00;47.60;;;;;;5016314;28;20466;-69
2024/02/02 01:16:42;;;;;;;6.10;5.90;;;21.00;47.60;;;;;;5026313;28;20442;-68
2024/02/02 01:19:10;;;;;;;6.23;6.00;;;21.00;47.60;;;;;;5013098;28;20854;-68
2024/02/02 01:21:37;;;;;;;5.90;5.60;;;21.00;47.60;;;;;;5013192;28;20465;-68
2024/02/02 01:24:04;;;;;;;5.50;5.20;;;21.00;47.60;;;;;;5013651;28;20470;-68
2024/02/02 01:26:31;;;;;;;5.97;5.70;;;21.00;47.50;;;;;;5024579;28;21006;-68
2024/02/02 01:28:59;;;;;;;5.77;5.53;;;20.90;47.50;;;;;;5024697;28;20932;-68
2024/02/02 01:31:26;;;;;;;6.13;5.73;;;20.90;47.50;;;;;;5013015;28;20449;-68
2024/02/02 01:33:53;;;;;;;6.70;6.20;;;20.90;47.60;;;;;;5019488;28;20465;-68
2024/02/02 01:36:20;;;;;;;5.90;5.70;;;20.90;47.60;;;;;;5021595;28;20977;-68
2024/02/02 01:38:50;;;;;;;6.00;5.43;;;20.90;47.50;;;;;;5012450;28;20474;-68
2024/02/02 01:41:17;;;;;;;6.50;6.30;;;20.90;47.50;;;;;;5022399;28;20954;-68
2024/02/02 01:43:44;;;;;;;5.43;5.20;;;20.90;47.50;;;;;;5015039;28;20470;-68
2024/02/02 01:46:13;;;;;;;5.73;5.53;;;20.90;47.50;;;;;;5012856;28;20534;-68
2024/02/02 01:48:41;;;;;;;6.10;5.90;;;20.90;47.60;;;;;;5020880;28;20498;-68
2024/02/02 01:51:08;;;;;;;6.77;6.03;;;20.90;47.60;;;;;;5012411;28;20957;-68
2024/02/02 01:53:35;;;;;;;6.27;5.97;;;20.90;47.60;;;;;;5014788;28;20812;-68
2024/02/02 01:56:02;;;;;;;5.50;5.30;;;20.80;47.50;;;;;;5012399;28;20442;-68
2024/02/02 01:58:29;;;;;;;7.43;6.90;;;20.80;47.50;;;;;;5020465;28;20535;-68
2024/02/02 02:00:56;;;;;;;7.27;6.77;;;20.80;47.50;;;;;;5017065;28;20445;-68
2024/02/02 02:03:25;;;;;;;8.23;7.73;;;20.80;47.40;;;;;;5020522;28;20462;-68
2024/02/02 02:05:52;;;;;;;7.10;6.70;;;20.80;47.40;;;;;;5012530;28;20446;-68
2024/02/02 02:08:19;;;;;;;7.20;6.80;;;20.80;47.40;;;;;;5022680;28;20442;-68
2024/02/02 02:10:46;;;;;;;7.40;6.90;;;20.80;47.40;;;;;;5020778;28;20495;-68
2024/02/02 02:13:13;;;;;;;6.30;6.10;;;20.80;47.40;;;;;;5022226;28;20834;-68
2024/02/02 02:15:40;;;;;;;7.33;6.87;;;20.80;47.40;;;;;;5020377;28;20874;-68
2024/02/02 02:18:07;;;;;;;6.00;5.70;;;20.80;47.40;;;;;;5011753;28;20481;-68
2024/02/02 02:20:37;;;;;;;6.50;6.27;;;20.80;47.50;;;;;;5021923;28;20858;-68
2024/02/02 02:23:05;;;;;;;6.93;6.73;;;20.80;47.40;;;;;;5023162;28;20573;-68
2024/02/02 02:25:33;;;;;;;6.27;6.00;;;20.80;47.50;;;;;;5020137;28;20861;-68
2024/02/02 02:28:00;;;;;;;6.53;6.13;;;20.80;47.40;;;;;;5012041;28;20437;-68
2024/02/02 02:30:27;;;;;;;6.10;5.90;;;20.80;47.40;;;;;;5010787;28;20441;-67
2024/02/02 02:32:54;;;;;;;6.63;6.40;;;20.80;47.40;;;;;;5020543;28;20871;-68
2024/02/02 02:35:21;;;;;;;7.00;6.70;;;20.80;47.40;;;;;;5020760;28;20991;-68
2024/02/02 02:37:48;;;;;;;6.37;5.97;;;20.70;47.40;;;;;;5011771;28;20486;-68
2024/02/02 02:40:16;;;;;;;5.90;5.73;;;20.70;47.30;;;;;;5012376;28;20451;-68
2024/02/02 02:42:43;;;;;;;7.53;7.07;;;20.70;47.40;;;;;;5023345;28;20473;-68
2024/02/02 02:45:10;;;;;;;6.63;6.33;;;20.70;48.00;;;;;;5022145;28;20503;-68
2024/02/02 02:47:37;;;;;;;6.70;6.40;;;20.70;47.50;;;;;;5011696;28;20933;-68
2024/02/02 02:50:05;;;;;;;6.57;6.33;;;20.70;47.50;;;;;;5019066;28;20899;-68
2024/02/02 02:52:32;;;;;;;6.63;6.33;;;20.70;47.40;;;;;;5023238;28;20524;-68
2024/02/02 02:54:59;;;;;;;7.00;6.57;;;20.70;47.40;;;;;;5015824;28;20450;-68
2024/02/02 02:57:27;;;;;;;6.13;5.97;;;20.70;47.40;;;;;;5026880;28;20544;-68
2024/02/02 02:59:54;;;;;;;6.90;6.50;;;20.70;48.00;;;;;;5020266;28;20437;-68
2024/02/02 03:02:21;;;;;;;7.70;7.33;;;20.70;47.40;;;;;;5024575;28;20592;-68
2024/02/02 03:04:48;;;;;;;6.73;6.53;;;20.70;47.50;;;;;;5023843;28;20492;-68
2024/02/02 03:07:15;;;;;;;7.60;7.30;;;20.70;47.40;;;;;;5012920;28;20446;-68
2024/02/02 03:09:42;;;;;;;6.67;6.50;;;20.70;47.40;;;;;;5027112;28;20503;-68
2024/02/02 03:12:09;;;;;;;6.40;6.30;;;20.70;47.50;;;;;;5026159;28;20444;-68
2024/02/02 03:14:37;;;;;;;7.50;7.20;;;20.70;47.50;;;;;;5015347;28;20449;-68
2024/02/02 03:17:05;;;;;;;6.77;6.50;;;20.70;47.50;;;;;;5019483;28;20454;-68
2024/02/02 03:19:32;;;;;;;7.10;6.90;;;20.70;47.50;;;;;;5026838;28;20476;-68
2024/02/02 03:21:59;;;;;;;7.20;6.67;;;20.60;47.40;;;;;;5026754;28;20955;-69
2024/02/02 03:24:27;;;;;;;8.07;7.57;;;20.60;47.40;;;;;;5023819;28;20492;-68
2024/02/02 03:26:54;;;;;;;6.70;6.50;;;20.60;47.40;;;;;;5013900;28;20452;-68
2024/02/02 03:29:21;;;;;;;6.97;6.60;;;20.60;47.40;;;;;;5017171;28;20442;-68
2024/02/02 03:31:49;;;;;;;7.57;7.10;;;20.60;47.40;;;;;;5026632;28;20448;-68
2024/02/02 03:34:16;;;;;;;7.03;6.57;;;20.60;47.40;;;;;;5024818;28;20460;-68
2024/02/02 03:36:43;;;;;;;7.23;6.93;;;20.60;47.40;;;;;;5014911;28;20438;-68
2024/02/02 03:39:12;;;;;;;7.53;7.23;;;20.60;47.40;;;;;;5023145;28;20508;-68
2024/02/02 03:41:39;;;;;;;7.63;7.33;;;20.60;47.40;;;;;;5026374;28;20449;-68
2024/02/02 03:44:06;;;;;;;7.67;7.20;;;20.60;47.40;;;;;;5026267;28;20866;-68
2024/02/02 03:46:33;;;;;;;7.20;6.90;;;20.60;47.40;;;;;;5018054;28;20502;-68
2024/02/02 03:49:01;;;;;;;7.50;7.20;;;20.60;47.40;;;;;;5026525;28;20440;-68
2024/02/02 03:51:29;;;;;;;7.07;6.87;;;20.60;47.40;;;;;;5022925;28;20442;-68
2024/02/02 03:53:56;;;;;;;6.90;6.70;;;20.60;47.40;;;;;;5014558;28;20880;-68
2024/02/02 03:56:23;;;;;;;6.80;6.50;;;20.60;47.40;;;;;;5024805;28;20504;-68
2024/02/02 03:58:50;;;;;;;7.40;7.20;;;20.60;47.40;;;;;;5026139;28;20480;-68
2024/02/02 04:01:17;;;;;;;7.50;6.90;;;20.60;47.40;;;;;;5024397;28;20445;-68
2024/02/02 04:03:43;;;;;;;7.30;7.00;;;20.60;47.40;;;;;;5021473;28;20489;-68
2024/02/02 04:06:12;;;;;;;6.80;6.40;;;20.60;47.40;;;;;;5014512;28;20450;-68
2024/02/02 04:08:39;;;;;;;7.17;6.87;;;20.60;47.40;;;;;;5026116;28;20437;-68
2024/02/02 04:11:07;;;;;;;7.33;7.00;;;20.60;47.50;;;;;;5026179;28;20445;-69
2024/02/02 04:13:34;;;;;;;6.97;6.47;;;20.50;47.50;;;;;;5014715;28;20874;-69
2024/02/02 04:16:01;;;;;;;6.73;6.50;;;20.50;47.50;;;;;;5022393;28;20505;-68
2024/02/02 04:18:28;;;;;;;6.47;6.27;;;20.60;47.70;;;;;;5014326;28;20898;-68
2024/02/02 04:20:55;;;;;;;7.80;7.40;;;20.50;47.60;;;;;;5022506;28;20812;-68
2024/02/02 04:23:25;;;;;;;6.67;6.37;;;20.60;47.70;;;;;;5013855;28;20470;-68
2024/02/02 04:25:53;;;;;;;6.70;6.40;;;20.50;47.60;;;;;;5021716;28;21000;-67
2024/02/02 04:28:20;;;;;;;7.27;6.87;;;20.60;47.80;;;;;;5014137;28;20458;-68
2024/02/02 04:30:47;;;;;;;6.93;6.67;;;20.50;47.70;;;;;;5022142;28;20493;-68
2024/02/02 04:33:14;;;;;;;7.43;7.13;;;20.50;47.80;;;;;;5013782;28;20977;-68
2024/02/02 04:35:41;;;;;;;7.30;7.00;;;20.50;47.80;;;;;;5021701;28;20922;-68
2024/02/02 04:38:08;;;;;;;6.73;6.57;;;20.50;48.50;;;;;;5013642;28;21074;-68
2024/02/02 04:40:36;;;;;;;6.87;6.67;;;20.50;47.90;;;;;;5021952;28;20925;-68
2024/02/02 04:43:04;;;;;;;6.80;6.60;;;20.50;47.90;;;;;;5025122;28;20461;-67
2024/02/02 04:45:30;;;;;;;7.20;6.90;;;20.50;48.10;;;;;;5021493;28;20435;-67
2024/02/02 04:47:57;;;;;;;7.43;7.13;;;20.50;47.90;;;;;;5013579;28;20496;-67
2024/02/02 04:50:25;;;;;;;7.40;7.10;;;20.50;47.90;;;;;;5024108;28;20446;-68
2024/02/02 04:52:52;;;;;;;7.30;7.00;;;20.50;47.90;;;;;;5024893;28;20477;-68
2024/02/02 04:55:19;;;;;;;7.30;7.10;;;20.50;47.90;;;;;;5022755;28;20448;-68
2024/02/02 04:57:47;;;;;;;7.07;6.87;;;20.50;48.10;;;;;;5013451;28;20445;-68
2024/02/02 05:00:15;;;;;;;7.10;6.80;;;20.50;48.10;;;;;;5013248;28;21139;-68
2024/02/02 05:02:42;;;;;;;7.33;7.03;;;20.50;48.10;;;;;;5013221;28;20466;-68
2024/02/02 05:05:10;;;;;;;7.20;7.00;;;20.50;48.20;;;;;;5023750;28;20449;-68
2024/02/02 05:07:37;;;;;;;7.43;7.03;;;20.50;48.20;;;;;;5013292;28;20453;-68
2024/02/02 05:10:05;;;;;;;7.30;7.00;;;20.50;48.80;;;;;;5021514;28;20438;-68
2024/02/02 05:12:33;;;;;;;6.60;6.40;;;20.50;48.30;;;;;;5024311;28;20488;-67
2024/02/02 05:15:01;;;;;;;6.83;6.63;;;20.50;48.30;;;;;;5024084;28;20499;-67
2024/02/02 05:17:28;;;;;;;7.70;7.40;;;20.50;48.20;;;;;;5021979;28;20867;-67
2024/02/02 05:19:55;;;;;;;10.17;8.87;;;20.50;48.80;;;;;;5013082;28;20530;-68
2024/02/02 05:22:22;;;;;;;12.07;11.17;;;20.50;52.60;;;;;;5020646;28;20807;-68
2024/02/02 05:24:49;;;;;;;11.30;9.43;;;20.60;58.60;;;;;;5026340;28;20824;-68
2024/02/02 05:27:17;;;;;;;13.23;9.83;;;20.60;63.60;;;;;;5023383;28;20503;-68
2024/02/02 05:29:44;;;;;;;16.83;9.10;;;20.60;69.50;;;;;;5012951;28;20973;-67
2024/02/02 05:32:12;;;;;;;16.63;9.77;;;20.60;69.60;;;;;;5021052;28;20544;-68
2024/02/02 05:34:39;;;;;;;10.87;9.93;;;20.60;68.70;;;;;;5021158;28;20864;-67
2024/02/02 05:37:06;;;;;;;13.77;10.30;;;20.60;67.50;;;;;;5013153;28;20487;-66
2024/02/02 05:39:33;;;;;;;14.97;11.00;;;20.60;65.80;;;;;;5015863;28;20501;-66
2024/02/02 05:42:01;;;;;;;14.93;9.83;;;20.60;65.00;;;;;;5020696;28;20500;-66
2024/02/02 05:44:28;;;;;;;15.17;10.10;;;20.60;63.60;;;;;;5012427;28;20442;-66
2024/02/02 05:46:55;;;;;;;21.07;11.43;;;20.60;62.70;;;;;;5020700;28;20443;-66
2024/02/02 05:49:23;;;;;;;14.80;9.63;;;20.60;61.60;;;;;;5012323;28;21043;-66
2024/02/02 05:51:50;;;;;;;9.17;8.30;;;20.60;60.60;;;;;;5020477;28;20529;-66
2024/02/02 05:54:17;;;;;;;12.40;10.30;;;20.60;59.90;;;;;;5012333;28;20512;-66
2024/02/02 05:56:44;;;;;;;12.03;10.83;;;20.60;59.30;;;;;;5020526;28;20446;-65
2024/02/02 05:59:11;;;;;;;8.73;7.93;;;20.60;58.70;;;;;;5012167;28;20481;-65
2024/02/02 06:01:38;;;;;;;16.83;10.40;;;20.60;58.20;;;;;;5020293;28;20450;-66
2024/02/02 06:04:05;;;;;;;16.57;11.10;;;20.60;57.80;;;;;;5012105;28;20479;-65
2024/02/02 06:06:33;;;;;;;14.50;9.40;;;20.60;57.40;;;;;;5023204;28;20774;-65
2024/02/02 06:09:00;;;;;;;12.40;9.90;;;20.60;57.00;;;;;;5023788;28;20445;-65
2024/02/02 06:11:27;;;;;;;12.17;8.73;;;20.60;56.50;;;;;;5021257;28;20448;-65
2024/02/02 06:13:55;;;;;;;8.63;7.90;;;20.60;56.20;;;;;;5011833;28;20462;-65
2024/02/02 06:16:24;;;;;;;9.27;8.20;;;20.60;55.90;;;;;;5021707;28;20450;-66
2024/02/02 06:18:51;;;;;;;8.73;8.03;;;20.60;55.60;;;;;;5023286;28;20490;-66
2024/02/02 06:21:18;;;;;;;14.57;9.27;;;20.60;55.30;;;;;;5022315;28;20507;-65
2024/02/02 06:23:46;;;;;;;9.00;8.40;;;20.50;55.00;;;;;;5019992;28;20515;-65
2024/02/02 06:26:13;;;;;;;10.50;9.50;;;20.50;54.70;;;;;;5011092;28;20442;-66
2024/02/02 06:28:40;;;;;;;11.57;10.47;;;20.50;54.40;;;;;;5020173;28;20474;-66
2024/02/02 06:31:07;;;;;;;10.97;9.93;;;20.50;54.10;;;;;;5011751;28;20450;-66
2024/02/02 06:33:34;;;;;;;9.40;8.80;;;20.50;54.50;;;;;;5022750;28;21025;-65
2024/02/02 06:36:01;;;;;;;8.80;8.30;;;20.50;53.70;;;;;;5023234;28;20503;-65
2024/02/02 06:38:29;;;;;;;11.20;10.07;;;20.50;53.50;;;;;;5020866;28;20686;-65
2024/02/02 06:40:57;;;;;;;9.37;8.73;;;20.50;53.30;;;;;;5011575;28;20876;-66
2024/02/02 06:43:24;;;;;;;13.37;9.30;;;20.50;53.20;;;;;;5021145;28;20524;-65
2024/02/02 06:45:51;;;;;;;8.27;7.30;;;20.50;53.00;;;;;;5023191;28;20883;-66
2024/02/02 06:48:18;;;;;;;10.80;8.83;;;20.50;52.80;;;;;;5022332;28;20445;-66
2024/02/02 06:50:45;;;;;;;10.03;9.07;;;20.50;52.70;;;;;;5011520;28;20453;-65
2024/02/02 06:53:12;;;;;;;8.13;7.63;;;20.50;52.50;;;;;;5019411;28;20535;-65
2024/02/02 06:55:39;;;;;;;8.77;7.80;;;20.50;52.40;;;;;;5011791;28;20450;-65
2024/02/02 06:58:16;;;;;;;8.97;8.37;;;20.50;52.30;;;;;;5011463;28;20454;-65
2024/02/02 07:00:44;;;;;;;9.03;8.33;;;20.50;52.10;;;;;;5012178;28;20446;-66
2024/02/02 07:03:10;;;;;;;11.77;8.70;;;20.50;52.00;;;;;;5011538;28;20520;-66
2024/02/02 07:05:37;;;;;;;10.07;8.00;;;20.50;51.90;;;;;;5022831;28;20441;-65
2024/02/02 07:08:05;;;;;;;9.90;8.97;;;20.50;51.80;;;;;;5022878;28;20437;-65
2024/02/02 07:10:32;;;;;;;11.50;9.10;;;20.50;51.70;;;;;;5020277;28;20441;-65
2024/02/02 07:13:00;;;;;;;8.80;8.30;;;20.50;51.50;;;;;;5011256;28;20465;-66
2024/02/02 07:15:31;;;;;;;9.27;8.77;;;20.50;51.40;;;;;;5021358;28;20510;-66
2024/02/02 07:17:59;;;;;;;9.87;8.77;;;20.50;51.30;;;;;;5022861;28;20445;-65
2024/02/02 07:21:06;;;;;;;8.27;7.93;;;20.50;51.20;;;;;;5021060;28;20477;-66
2024/02/02 07:23:35;;;;;;;9.10;8.43;;;20.50;51.10;;;;;;5011047;28;20466;-66
2024/02/02 07:26:05;;;;;;;8.13;7.73;;;20.40;51.00;;;;;;5019308;28;20534;-66
2024/02/02 07:28:36;;;;;;;8.37;7.93;;;20.40;50.90;;;;;;5021865;28;20438;-65
2024/02/02 07:31:07;;;;;;;9.83;9.07;;;20.40;50.80;;;;;;5022783;28;20536;-65
2024/02/02 07:33:40;;;;;;;10.33;9.53;;;20.40;50.70;;;;;;5019792;28;20461;-65
2024/02/02 07:36:11;;;;;;;7.80;7.40;;;20.40;50.60;;;;;;5011138;28;20953;-66
2024/02/02 07:38:56;;;;;;;8.10;7.70;;;20.40;50.50;;;;;;5025644;28;20831;-65
2024/02/02 07:41:24;;;;;;;9.10;8.47;;;20.40;50.40;;;;;;5025218;28;20444;-66
2024/02/02 07:43:52;;;;;;;8.57;8.27;;;20.40;50.40;;;;;;5014784;28;20517;-66
2024/02/02 07:46:20;;;;;;;8.40;7.70;;;20.40;50.30;;;;;;5023288;28;20448;-66
2024/02/02 07:48:48;;;;;;;8.63;8.13;;;20.40;50.30;;;;;;5026236;28;20520;-66
2024/02/02 07:51:16;;;;;;;10.20;9.57;;;20.40;50.20;;;;;;5026144;28;20445;-66
2024/02/02 07:53:44;;;;;;;8.93;8.53;;;20.40;50.10;;;;;;5014790;28;20465;-65
2024/02/02 07:56:11;;;;;;;9.27;8.70;;;20.40;50.10;;;;;;5014656;28;20445;-65
2024/02/02 07:58:39;;;;;;;8.10;7.90;;;20.40;50.00;;;;;;5014240;28;20438;-65
2024/02/02 08:01:07;;;;;;;8.47;8.27;;;20.40;49.90;;;;;;5022504;28;20482;-65
2024/02/02 08:03:36;;;;;;;9.70;8.97;;;20.40;49.90;;;;;;5014268;28;20501;-65
2024/02/02 08:06:03;;;;;;;8.67;8.37;;;20.30;49.70;;;;;;5022499;28;20508;-65
2024/02/02 08:08:32;;;;;;;8.90;8.60;;;20.40;49.80;;;;;;5024410;28;20820;-65
2024/02/02 08:11:00;;;;;;;9.50;9.00;;;20.40;49.70;;;;;;5025993;28;20443;-65
2024/02/02 08:13:27;;;;;;;10.83;10.10;;;20.40;49.70;;;;;;5023948;28;20497;-66
2024/02/02 08:15:54;;;;;;;9.87;9.23;;;20.40;49.60;;;;;;5014159;28;20577;-65
2024/02/02 08:18:22;;;;;;;8.97;8.60;;;20.40;49.50;;;;;;5022821;28;20933;-65
2024/02/02 08:20:50;;;;;;;8.90;8.50;;;20.40;49.50;;;;;;5025568;28;20481;-66
2024/02/02 08:23:17;;;;;;;8.97;8.47;;;20.30;49.40;;;;;;5025237;28;20493;-65
2024/02/02 08:25:44;;;;;;;8.80;8.60;;;20.30;49.30;;;;;;5013926;28;20450;-66
2024/02/02 08:28:11;;;;;;;9.30;9.00;;;20.40;49.40;;;;;;5022089;28;20504;-65
2024/02/02 08:30:38;;;;;;;9.40;9.00;;;20.30;49.20;;;;;;5013750;28;20488;-65
2024/02/02 08:33:05;;;;;;;8.10;7.80;;;20.40;49.20;;;;;;5021810;28;20466;-65
2024/02/02 08:35:32;;;;;;;9.00;8.70;;;20.30;49.10;;;;;;5023855;28;20988;-65
2024/02/02 08:38:02;;;;;;;8.97;8.63;;;20.40;49.20;;;;;;5025297;28;20928;-65
2024/02/02 08:40:42;;;;;;;8.50;8.30;;;20.40;49.10;;;;;;5023392;28;20555;-65
2024/02/02 08:43:11;;;;;;;8.33;8.13;;;20.30;49.00;;;;;;5013615;28;20469;-65
2024/02/02 08:46:09;;;;;;;8.50;8.00;;;20.30;49.00;;;;;;5024552;28;20441;-65
2024/02/02 08:48:37;;;;;;;9.03;8.63;;;20.30;48.90;;;;;;5022176;28;20951;-66
2024/02/02 08:51:29;;;;;;;9.17;8.77;;;20.30;48.90;;;;;;5013718;28;20465;-65
2024/02/02 08:54:13;;;;;;;9.33;8.73;;;20.30;48.90;;;;;;5015080;28;20549;-66
2024/02/02 08:56:40;;;;;;;8.97;8.43;;;20.30;48.90;;;;;;5024564;28;20499;-66
2024/02/02 08:59:28;;;;;;;9.13;8.80;;;20.30;48.80;;;;;;5024910;28;20495;-65
2024/02/02 09:01:55;;;;;;;8.87;8.47;;;20.30;48.80;;;;;;5015079;28;20875;-65
2024/02/02 09:04:49;;;;;;;9.07;8.60;;;20.30;48.70;;;;;;5021803;28;20868;-65
2024/02/02 09:07:17;;;;;;;8.57;8.27;;;20.30;48.70;;;;;;5024763;28;20449;-66
2024/02/02 09:09:46;;;;;;;8.23;7.93;;;20.30;48.90;;;;;;5013513;28;20929;-66
2024/02/02 09:12:12;;;;;;;9.00;8.70;;;20.30;48.60;;;;;;5013096;28;20449;-65
2024/02/02 09:14:41;;;;;;;8.03;7.80;;;20.30;48.60;;;;;;5024181;28;20438;-65
2024/02/02 09:17:08;;;;;;;9.13;8.73;;;20.30;48.50;;;;;;5024662;28;20819;-66
2024/02/02 09:19:41;;;;;;;8.90;8.50;;;20.30;48.40;;;;;;5022049;28;20575;-66
2024/02/02 09:22:12;;;;;;;9.00;8.63;;;20.30;48.40;;;;;;5012731;28;20454;-65
2024/02/02 09:24:41;;;;;;;8.70;8.40;;;20.30;48.30;;;;;;5023730;28;20442;-65
2024/02/02 09:27:14;;;;;;;8.50;8.30;;;20.20;48.20;;;;;;5024427;28;20448;-66
2024/02/02 09:29:51;;;;;;;9.97;9.47;;;20.30;48.30;;;;;;5021432;28;20441;-65
2024/02/02 09:32:18;;;;;;;8.40;8.10;;;20.30;48.30;;;;;;5012468;28;20461;-66
2024/02/02 09:34:46;;;;;;;9.53;9.13;;;20.30;48.20;;;;;;5012929;28;20496;-65
2024/02/02 09:37:20;;;;;;;8.60;8.40;;;20.20;48.10;;;;;;5012615;28;20934;-65
2024/02/02 09:39:54;;;;;;;8.60;8.30;;;20.20;48.10;;;;;;5013139;28;20481;-66
2024/02/02 09:42:56;;;;;;;9.00;8.50;;;20.20;48.00;;;;;;5012243;28;20474;-66
2024/02/02 09:45:43;;;;;;;8.83;8.53;;;20.30;48.00;;;;;;5012365;28;20493;-66
2024/02/02 09:48:19;;;;;;;9.90;9.60;;;20.30;48.00;;;;;;5020751;28;20933;-65
2024/02/02 09:50:55;;;;;;;8.60;8.40;;;20.20;47.90;;;;;;5012547;28;20442;-66
2024/02/02 09:53:52;;;;;;;8.20;8.00;;;20.20;47.90;;;;;;5012058;28;20512;-65
2024/02/02 09:56:27;;;;;;;9.23;9.03;;;20.20;47.80;;;;;;5020499;28;20949;-66
2024/02/02 09:59:03;;;;;;;8.90;8.53;;;20.20;47.80;;;;;;5013545;28;20495;-65
2024/02/02 10:01:48;;;;;;;10.10;9.60;;;20.20;47.80;;;;;;5011379;28;20477;-65
2024/02/02 10:04:28;;;;;;;8.40;8.10;;;20.20;47.80;;;;;;5020318;28;20458;-65
2024/02/02 10:07:03;;;;;;;8.87;8.50;;;20.20;47.70;;;;;;5013376;28;20449;-66
2024/02/02 10:09:49;;;;;;;8.33;8.13;;;20.20;47.70;;;;;;5012105;28;20438;-65
2024/02/02 10:12:27;;;;;;;8.93;8.67;;;20.20;47.70;;;;;;5020121;28;20704;-65
2024/02/02 10:15:16;;;;;;;9.20;8.80;;;20.20;47.60;;;;;;5013281;28;20867;-66
2024/02/02 10:18:02;;;;;;;9.83;9.53;;;20.20;47.60;;;;;;5011878;28;20848;-65
2024/02/02 10:20:37;;;;;;;8.33;8.03;;;20.20;47.60;;;;;;5020973;28;20904;-66
2024/02/02 10:23:28;;;;;;;8.80;8.50;;;20.20;47.60;;;;;;5023391;28;20518;-65
2024/02/02 10:26:12;;;;;;;8.20;8.00;;;20.20;47.60;;;;;;5013149;28;20442;-65
2024/02/02 10:28:50;;;;;;;8.57;8.27;;;20.20;47.50;;;;;;5011934;28;20793;-65
2024/02/02 10:31:32;;;;;;;8.77;8.47;;;20.20;47.50;;;;;;5019975;28;20930;-65
2024/02/02 10:34:16;;;;;;;9.07;8.63;;;20.20;47.40;;;;;;5013505;28;20462;-65
2024/02/02 10:36:55;;;;;;;8.70;8.40;;;20.20;47.40;;;;;;5011645;28;20469;-66
2024/02/02 10:39:29;;;;;;;8.13;7.93;;;20.20;47.40;;;;;;5011561;28;20899;-65
2024/02/02 10:42:17;;;;;;;8.77;8.50;;;20.20;47.30;;;;;;5019911;28;20438;-66
2024/02/02 10:44:56;;;;;;;8.70;8.50;;;20.20;47.30;;;;;;5011728;28;20443;-65
2024/02/02 10:47:37;;;;;;;9.10;8.70;;;20.20;47.30;;;;;;5019888;28;20941;-65
2024/02/02 10:50:15;;;;;;;8.77;8.53;;;20.10;47.20;;;;;;5023067;28;20441;-66
2024/02/02 10:52:51;;;;;;;8.43;8.23;;;20.10;47.10;;;;;;5020087;28;20515;-66
2024/02/02 10:55:31;;;;;;;8.90;8.50;;;20.20;47.20;;;;;;5011719;28;20528;-65
2024/02/02 10:58:09;;;;;;;9.27;8.97;;;20.10;47.10;;;;;;5013030;28;20450;-65
2024/02/02 11:00:43;;;;;;;9.40;9.00;;;20.20;47.10;;;;;;5011306;28;20556;-66
2024/02/02 11:03:22;;;;;;;9.60;9.20;;;20.10;47.10;;;;;;5019612;28;20845;-65
2024/02/02 11:05:56;;;;;;;9.30;9.10;;;20.10;47.00;;;;;;5011754;28;20489;-66
2024/02/02 11:08:28;;;;;;;9.30;9.03;;;20.10;47.00;;;;;;5011268;28;20450;-65
2024/02/02 11:11:00;;;;;;;9.00;8.73;;;20.10;46.90;;;;;;5019532;28;20450;-66
2024/02/02 11:13:39;;;;;;;9.00;8.80;;;20.10;46.90;;;;;;5014680;28;20520;-65
2024/02/02 11:16:17;;;;;;;8.40;8.20;;;20.10;46.80;;;;;;5015260;28;20445;-65
2024/02/02 11:19:06;;;;;;;8.70;8.50;;;20.10;46.80;;;;;;5026208;28;20473;-65
2024/02/02 11:22:00;;;;;;;9.10;8.80;;;20.20;46.90;;;;;;5025192;28;20827;-66
2024/02/02 11:24:36;;;;;;;8.70;8.50;;;20.20;46.90;;;;;;5015006;28;20445;-66
2024/02/02 11:27:08;;;;;;;8.90;8.70;;;20.10;46.80;;;;;;5023256;28;20438;-66
2024/02/02 11:29:47;;;;;;;8.93;8.63;;;20.20;46.80;;;;;;5014913;28;20446;-66
2024/02/02 11:32:40;;;;;;;9.20;8.97;;;20.10;46.80;;;;;;5023250;28;20453;-66
2024/02/02 11:35:20;;;;;;;8.60;8.30;;;20.10;46.70;;;;;;5015020;28;20449;-66
2024/02/02 11:38:01;;;;;;;11.93;11.43;;;20.10;46.70;;;;;;5014747;28;20492;-66
2024/02/02 11:40:30;;;;;;;8.40;8.10;;;20.20;46.70;;;;;;5023288;28;21012;-66
2024/02/02 11:42:59;;;;;;;8.90;8.60;;;20.20;46.70;;;;;;5026221;28;20959;-66
2024/02/02 11:45:29;;;;;;;8.30;8.10;;;20.10;46.60;;;;;;5026158;28;20530;-65
2024/02/02 11:48:04;;;;;;;8.23;7.93;;;20.10;46.70;;;;;;5014725;28;20446;-66
2024/02/02 11:50:41;;;;;;;8.10;7.80;;;20.10;46.60;;;;;;5014585;28;20449;-66
2024/02/02 11:53:16;;;;;;;8.50;8.30;;;20.10;46.60;;;;;;5014886;28;20478;-66
2024/02/02 11:55:48;;;;;;;7.93;7.73;;;20.10;46.50;;;;;;5025070;28;20445;-67
2024/02/02 11:58:18;;;;;;;8.40;8.20;;;20.20;46.60;;;;;;5026072;28;20529;-66
2024/02/02 12:01:20;;;;;;;9.20;8.90;;;20.20;46.60;;;;;;5023276;28;20526;-66
2024/02/02 12:03:58;;;;;;;9.80;9.10;;;20.20;46.60;;;;;;5025440;28;20464;-66
2024/02/02 12:06:33;;;;;;;8.80;8.50;;;20.20;46.60;;;;;;5025704;28;20457;-66
2024/02/02 12:09:15;;;;;;;8.90;8.70;;;20.20;46.60;;;;;;5014318;28;20449;-66
2024/02/02 12:11:47;;;;;;;9.30;8.80;;;20.10;46.50;;;;;;5024644;28;20521;-66
2024/02/02 12:14:22;;;;;;;8.90;8.70;;;20.10;46.50;;;;;;5025699;28;20840;-67
2024/02/02 12:16:50;;;;;;;7.57;7.40;;;20.10;46.50;;;;;;5022366;28;20441;-66
2024/02/02 12:19:17;;;;;;;7.90;7.70;;;20.10;46.50;;;;;;5013953;28;20485;-66
2024/02/02 12:21:46;;;;;;;7.33;7.13;;;20.10;46.50;;;;;;5024814;28;20477;-66
2024/02/02 12:24:14;;;;;;;7.70;7.50;;;20.10;46.50;;;;;;5024611;28;20453;-66
2024/02/02 12:26:41;;;;;;;8.90;8.70;;;20.10;46.50;;;;;;5023348;28;20720;-66
2024/02/02 12:29:09;;;;;;;8.40;8.10;;;20.10;46.50;;;;;;5013886;28;20452;-67
2024/02/02 12:31:36;;;;;;;7.70;7.50;;;20.10;46.40;;;;;;5023280;28;20867;-66
2024/02/02 12:34:03;;;;;;;7.90;7.70;;;20.10;46.40;;;;;;5025221;28;20465;-66
2024/02/02 12:36:30;;;;;;;7.80;7.50;;;20.10;46.40;;;;;;5024726;28;20815;-67
2024/02/02 12:39:05;;;;;;;7.27;7.13;;;20.10;46.50;;;;;;5013691;28;20868;-66
2024/02/02 12:41:32;;;;;;;8.50;7.90;;;20.10;46.40;;;;;;5022324;28;20489;-66
2024/02/02 12:44:00;;;;;;;7.87;7.67;;;20.10;46.40;;;;;;5025116;28;20468;-66
2024/02/02 12:46:28;;;;;;;8.33;8.13;;;20.10;46.40;;;;;;5025211;28;21039;-66
2024/02/02 12:48:55;;;;;;;7.40;7.30;;;20.20;46.40;;;;;;5013918;28;20438;-66
2024/02/02 12:51:22;;;;;;;7.63;7.37;;;20.20;46.40;;;;;;5013393;28;20438;-66
2024/02/02 12:53:50;;;;;;;7.73;7.53;;;20.20;46.40;;;;;;5024230;28;20531;-66
2024/02/02 12:56:18;;;;;;;7.63;7.43;;;20.20;46.40;;;;;;5024924;28;20900;-66
2024/02/02 12:58:46;;;;;;;7.90;7.70;;;20.20;46.40;;;;;;5022519;28;20480;-66
2024/02/02 13:01:13;;;;;;;7.23;7.13;;;20.20;46.40;;;;;;5013284;28;20486;-67